Time;durP1;ratioP1;P1;durP2;ratioP2;P2;SDS_P1;SDS_P2;PMS_P1;PMS_P2;Temp;Humidity;BMP_temperature;BMP_pressure;BME280_temperature;BME280_humidity;BME280_pressure;Samples;Min_cycle;Max_cycle;Signal;HPM_P1;HPM_P2
2023/01/26 00:00:42;;;;;;;26.80;20.50;;;;;;;-2.01;69.15;101540.04;105760;1256;59754;-66
2023/01/26 00:03:10;;;;;;;30.70;20.90;;;;;;;-2.01;69.21;101540.55;105461;1257;60031;-66
2023/01/26 00:05:37;;;;;;;28.30;19.50;;;;;;;-2.01;69.27;101546.94;105536;1257;65483;-67
2023/01/26 00:08:04;;;;;;;29.20;20.60;;;;;;;-2.02;69.30;101546.95;105475;1260;59737;-66
2023/01/26 00:10:35;;;;;;;30.40;19.20;;;;;;;-2.02;69.30;101542.81;105462;1255;65716;-67
2023/01/26 00:13:03;;;;;;;43.30;26.30;;;;;;;-2.03;69.29;101542.30;105344;1256;59575;-67
2023/01/26 00:15:36;;;;;;;36.90;23.80;;;;;;;-2.04;69.21;101543.67;105469;1256;59552;-67
2023/01/26 00:18:04;;;;;;;29.10;20.00;;;;;;;-2.05;69.24;101546.61;105341;1257;64864;-66
2023/01/26 00:20:31;;;;;;;32.30;20.90;;;;;;;-2.06;69.29;101541.63;105458;1255;59730;-66
2023/01/26 00:22:59;;;;;;;28.60;19.40;;;;;;;-2.06;69.38;101545.41;105513;1256;65338;-67
2023/01/26 00:25:27;;;;;;;34.20;21.30;;;;;;;-2.04;69.47;101542.48;105433;1256;60457;-67
2023/01/26 00:27:54;;;;;;;39.40;23.30;;;;;;;-2.03;69.49;101543.49;105650;1254;60405;-66
2023/01/26 00:30:20;;;;;;;37.00;21.40;;;;;;;-2.03;69.43;101546.42;105395;1254;66531;-65
2023/01/26 00:32:52;;;;;;;28.30;18.30;;;;;;;-2.04;69.41;101544.02;105606;1257;60305;-64
2023/01/26 00:35:20;;;;;;;27.50;18.90;;;;;;;-2.06;69.42;101543.01;105312;1256;66093;-64
2023/01/26 00:37:47;;;;;;;26.80;18.20;;;;;;;-2.09;69.32;101543.55;105494;1254;60451;-65
2023/01/26 00:40:16;;;;;;;26.00;19.00;;;;;;;-2.10;69.31;101541.85;105514;1256;60464;-65
2023/01/26 00:42:43;;;;;;;28.10;19.20;;;;;;;-2.11;69.32;101543.40;105857;1256;66609;-64
2023/01/26 00:45:10;;;;;;;27.10;18.40;;;;;;;-2.10;69.32;101541.67;105588;1256;60462;-66
2023/01/26 00:47:38;;;;;;;29.60;18.20;;;;;;;-2.11;69.27;101543.06;105596;1257;65356;-65
2023/01/26 00:50:05;;;;;;;32.80;19.60;;;;;;;-2.13;69.25;101539.27;105562;1257;60401;-65
2023/01/26 00:58:31;;;;;;;24.60;17.00;;;;;;;-2.14;69.25;101540.31;102582;1292;600720;-65
2023/01/26 01:00:59;;;;;;;26.40;17.20;;;;;;;-2.18;69.16;101543.64;104827;1272;59292;-64
2023/01/26 01:03:28;;;;;;;26.70;15.90;;;;;;;-2.22;69.04;101546.61;104785;1267;59255;-65
2023/01/26 01:05:56;;;;;;;33.10;19.10;;;;;;;-2.27;68.92;101539.73;104698;1272;65353;-64
2023/01/26 01:08:26;;;;;;;32.00;18.10;;;;;;;-2.31;68.94;101536.15;104719;1266;59910;-65
2023/01/26 01:11:08;;;;;;;31.60;19.10;;;;;;;-2.29;68.97;101531.65;104790;1266;65572;-66
2023/01/26 01:13:37;;;;;;;32.10;19.40;;;;;;;-2.25;69.08;101527.64;104741;1267;61492;-65
2023/01/26 01:16:11;;;;;;;27.90;18.50;;;;;;;-2.23;69.14;101526.59;104838;1267;59263;-65
2023/01/26 01:18:39;;;;;;;27.50;17.70;;;;;;;-2.20;69.14;101528.13;104848;1269;63485;-66
2023/01/26 01:21:14;;;;;;;28.90;19.30;;;;;;;-2.18;69.08;101527.42;105598;1259;59802;-66
2023/01/26 01:23:42;;;;;;;30.00;17.90;;;;;;;-2.19;68.99;101528.64;105566;1254;64891;-64
2023/01/26 01:26:11;;;;;;;31.40;19.30;;;;;;;-2.21;68.88;101529.34;105613;1257;59730;-66
2023/01/26 01:28:42;;;;;;;26.20;17.20;;;;;;;-2.24;68.78;101523.65;105556;1254;59542;-65
2023/01/26 01:31:15;;;;;;;28.80;17.20;;;;;;;-2.29;68.70;101520.09;105370;1255;65713;-66
2023/01/26 01:33:44;;;;;;;23.90;16.80;;;;;;;-2.33;68.75;101518.38;105632;1254;61739;-66
2023/01/26 01:36:14;;;;;;;24.80;16.70;;;;;;;-2.35;68.73;101517.20;105543;1254;65279;-66
2023/01/26 01:38:43;;;;;;;29.10;18.70;;;;;;;-2.35;68.74;101519.27;105295;1255;59733;-65
2023/01/26 01:41:13;;;;;;;28.60;17.10;;;;;;;-2.34;68.82;101519.95;105391;1259;59696;-66
2023/01/26 01:43:41;;;;;;;23.60;15.90;;;;;;;-2.33;68.89;101517.70;105371;1254;64877;-68
2023/01/26 01:46:26;;;;;;;24.10;15.80;;;;;;;-2.29;68.97;101513.89;105602;1257;60375;-65
2023/01/26 01:48:59;;;;;;;22.40;15.00;;;;;;;-2.29;69.00;101512.67;105610;1254;64575;-66
2023/01/26 01:51:33;;;;;;;;;;;;;;;-2.28;68.88;101506.46;105622;1259;59702;-66
2023/01/26 01:54:04;;;;;;;20.50;14.60;;;;;;;-2.29;68.90;101501.80;105614;1254;59734;-66
2023/01/26 01:56:34;;;;;;;22.70;15.90;;;;;;;-2.27;68.95;101500.41;105475;1257;66242;-73
2023/01/26 01:59:03;;;;;;;24.00;16.30;;;;;;;-2.26;68.99;101504.88;105567;1254;59618;-67
2023/01/26 02:01:31;;;;;;;21.70;15.70;;;;;;;-2.26;68.93;101499.36;105661;1254;67179;-63
2023/01/26 02:04:01;;;;;;;22.20;14.30;;;;;;;-2.26;68.96;101497.11;105673;1254;59551;-64
2023/01/26 02:06:39;;;;;;;20.80;14.90;;;;;;;-2.27;68.86;101496.43;105547;1254;60742;-66
2023/01/26 02:10:17;;;;;;;17.70;12.70;;;;;;;-2.28;68.88;101496.96;105836;1254;66051;-67
2023/01/26 02:11:57;;;;;;;19.40;13.60;;;;;;;-2.27;68.88;101496.78;105470;1254;60002;-67
2023/01/26 02:14:26;;;;;;;22.10;15.10;;;;;;;-2.29;68.95;101488.70;105404;1255;64813;-67
2023/01/26 02:16:54;;;;;;;23.30;15.70;;;;;;;-2.31;69.00;101483.72;105555;1260;59746;-67
2023/01/26 02:19:45;;;;;;;24.30;16.20;;;;;;;-2.30;68.97;101483.02;105608;1254;59660;-67
2023/01/26 02:22:41;;;;;;;22.50;15.90;;;;;;;-2.27;68.98;101478.14;105547;1258;65846;-69
2023/01/26 02:25:37;;;;;;;22.70;16.10;;;;;;;-2.27;68.92;101471.94;105464;1254;59717;-66
2023/01/26 02:28:08;;;;;;;21.60;15.30;;;;;;;-2.25;68.94;101466.22;105638;1254;65582;-65
2023/01/26 02:30:36;;;;;;;21.10;15.10;;;;;;;-2.23;68.97;101457.23;105754;1257;59598;-65
2023/01/26 02:33:05;;;;;;;23.30;15.40;;;;;;;-2.22;68.93;101455.66;105624;1253;59655;-65
2023/01/26 02:35:34;;;;;;;23.00;16.20;;;;;;;-2.23;68.89;101457.57;105605;1259;65947;-66
2023/01/26 02:38:02;;;;;;;23.20;15.70;;;;;;;-2.24;68.90;101459.81;105679;1254;61265;-69
2023/01/26 02:40:54;;;;;;;21.10;15.50;;;;;;;-2.24;68.82;101467.59;105199;1255;65433;-65
2023/01/26 02:43:25;;;;;;;18.00;12.50;;;;;;;-2.25;68.83;101462.59;105626;1254;59618;-66
2023/01/26 02:45:54;;;;;;;23.90;14.60;;;;;;;-2.27;68.77;101460.89;105547;1254;59646;-69
2023/01/26 02:51:09;;;;;;;23.30;15.30;;;;;;;-2.26;68.87;101461.74;105509;1254;60054;-65
2023/01/26 02:53:37;;;;;;;18.00;13.20;;;;;;;-2.25;68.85;101461.73;105572;1254;65507;-65
2023/01/26 02:56:06;;;;;;;20.10;14.20;;;;;;;-2.24;68.79;101460.50;105746;1254;59727;-65
2023/01/26 02:58:35;;;;;;;19.80;14.30;;;;;;;-2.25;68.74;101454.15;105548;1254;60244;-67
2023/01/26 03:01:03;;;;;;;21.70;14.40;;;;;;;-2.26;68.79;101451.56;105285;1263;65296;-65
2023/01/26 03:03:40;;;;;;;20.90;14.10;;;;;;;-2.27;68.83;101447.44;105777;1254;59607;-68
2023/01/26 03:06:10;;;;;;;18.50;13.40;;;;;;;-2.27;68.81;101444.70;105601;1254;65585;-65
2023/01/26 03:08:38;;;;;;;18.50;13.70;;;;;;;-2.27;68.84;101438.65;105468;1254;61121;-65
2023/01/26 03:11:07;;;;;;;20.70;14.10;;;;;;;-2.27;68.80;101434.67;105449;1254;59694;-65
2023/01/26 03:13:35;;;;;;;18.20;13.60;;;;;;;-2.29;68.67;101431.77;105576;1254;64888;-65
2023/01/26 03:16:09;;;;;;;23.10;14.60;;;;;;;-2.31;68.77;101430.58;105557;1258;59752;-66
2023/01/26 03:29:49;;;;;;;20.50;14.40;;;;;;;-2.25;68.94;101425.52;105493;1254;59916;-66
2023/01/26 03:32:17;;;;;;;20.10;14.10;;;;;;;-2.24;68.97;101425.33;105203;1257;67048;-67
2023/01/26 03:34:47;;;;;;;21.00;14.50;;;;;;;-2.24;68.86;101426.02;105558;1259;59544;-66
2023/01/26 03:37:21;;;;;;;21.90;15.30;;;;;;;-2.27;68.76;101427.27;105457;1254;59733;-65
2023/01/26 03:56:44;;;;;;;23.10;16.00;;;;;;;-2.27;69.00;101410.35;105508;1259;59646;-65
2023/01/26 03:59:15;;;;;;;24.20;16.80;;;;;;;-2.26;69.15;101412.23;105529;1254;65388;-69
2023/01/26 04:10:14;;;;;;;22.40;15.10;;;;;;;-2.34;68.92;101412.30;105607;1259;59628;-70
2023/01/26 04:23:56;;;;;;;24.10;15.80;;;;;;;-2.32;69.16;101415.58;105539;1254;60366;-66
2023/01/26 04:26:26;;;;;;;23.60;16.00;;;;;;;-2.32;69.10;101418.85;105684;1262;65231;-65
2023/01/26 04:28:54;;;;;;;23.10;16.10;;;;;;;-2.32;69.06;101424.04;105464;1262;59692;-64
2023/01/26 04:31:23;;;;;;;22.40;16.00;;;;;;;-2.31;69.15;101427.83;105702;1254;59711;-65
2023/01/26 04:33:51;;;;;;;24.00;15.30;;;;;;;-2.31;69.13;101426.10;105619;1260;65961;-65
2023/01/26 04:36:21;;;;;;;21.60;15.50;;;;;;;-2.31;69.09;101423.51;105678;1258;60020;-65
2023/01/26 04:38:50;;;;;;;22.90;15.40;;;;;;;-2.32;69.03;101419.55;105702;1255;65268;-65
2023/01/26 04:41:20;;;;;;;23.40;15.20;;;;;;;-2.31;69.09;101423.16;105640;1254;59765;-65
2023/01/26 04:43:55;;;;;;;23.70;15.80;;;;;;;-2.29;69.09;101419.88;105604;1259;61257;-68
2023/01/26 04:46:24;;;;;;;22.30;14.70;;;;;;;-2.29;69.07;101420.04;105366;1261;65714;-65
2023/01/26 04:48:53;;;;;;;23.10;15.10;;;;;;;-2.31;69.08;101422.48;105935;1259;59848;-66
2023/01/26 04:51:22;;;;;;;21.90;15.30;;;;;;;-2.32;69.12;101421.27;105938;1260;65384;-66
2023/01/26 04:53:50;;;;;;;22.20;15.40;;;;;;;-2.34;69.08;101414.73;105621;1259;59656;-67
2023/01/26 04:56:24;;;;;;;25.40;15.30;;;;;;;-2.35;69.15;101418.02;105718;1259;61212;-66
2023/01/26 04:58:53;;;;;;;24.90;16.30;;;;;;;-2.35;69.19;101421.80;105579;1260;65637;-66
2023/01/26 05:01:22;;;;;;;29.40;18.00;;;;;;;-2.32;69.29;101423.69;105385;1260;59882;-66
2023/01/26 05:03:51;;;;;;;22.00;14.90;;;;;;;-2.29;69.30;101424.00;105373;1258;65556;-66
2023/01/26 05:06:20;;;;;;;25.90;16.40;;;;;;;-2.26;69.24;101423.80;105598;1259;59701;-65
2023/01/26 05:08:49;;;;;;;26.00;17.10;;;;;;;-2.24;69.21;101427.39;105850;1254;59730;-69
2023/01/26 05:11:18;;;;;;;24.20;16.80;;;;;;;-2.22;69.16;101429.63;105774;1253;64675;-65
2023/01/26 05:14:09;;;;;;;24.40;15.40;;;;;;;-2.20;69.25;101430.48;105528;1260;60028;-64
2023/01/26 05:17:07;;;;;;;23.40;16.20;;;;;;;-2.18;69.18;101435.45;105530;1266;64587;-66
2023/01/26 05:19:48;;;;;;;25.70;16.80;;;;;;;-2.18;69.12;101434.07;105598;1254;60465;-66
2023/01/26 05:22:38;;;;;;;26.40;16.20;;;;;;;-2.19;69.06;101434.77;105392;1260;60981;-66
2023/01/26 05:25:32;;;;;;;25.50;15.90;;;;;;;-2.19;69.07;101431.32;105342;1259;66471;-66
2023/01/26 05:28:08;;;;;;;23.90;16.10;;;;;;;-2.19;69.14;101429.25;105668;1255;60546;-65
2023/01/26 05:30:36;;;;;;;26.40;16.70;;;;;;;-2.18;69.13;101429.23;105416;1254;65709;-65
2023/01/26 05:33:06;;;;;;;25.60;16.50;;;;;;;-2.16;69.17;101429.73;105796;1258;60485;-65
2023/01/26 05:35:34;;;;;;;22.60;15.80;;;;;;;-2.16;69.09;101428.86;105682;1260;60414;-65
2023/01/26 05:38:05;;;;;;;28.70;17.30;;;;;;;-2.14;69.10;101434.88;105582;1260;66696;-65
2023/01/26 05:40:34;;;;;;;26.30;17.10;;;;;;;-2.14;69.08;101434.17;105454;1259;60412;-66
2023/01/26 05:43:02;;;;;;;24.90;16.50;;;;;;;-2.12;69.13;101440.05;105594;1254;65379;-64
2023/01/26 05:45:48;;;;;;;26.50;17.30;;;;;;;-2.10;69.11;101443.14;105554;1259;60397;-64
2023/01/26 05:48:17;;;;;;;27.10;16.40;;;;;;;-2.09;69.21;101446.73;105415;1260;60377;-65
2023/01/26 05:50:48;;;;;;;28.50;17.50;;;;;;;-2.08;69.08;101442.93;105666;1256;66346;-67
2023/01/26 05:53:19;;;;;;;25.20;16.00;;;;;;;-2.05;69.13;101443.94;105675;1260;60448;-66
2023/01/26 05:55:48;;;;;;;26.40;16.40;;;;;;;-2.04;69.12;101446.52;105647;1258;65570;-65
2023/01/26 05:58:20;;;;;;;28.70;17.90;;;;;;;-2.04;69.01;101448.58;105459;1259;60342;-65
2023/01/26 06:00:49;;;;;;;29.40;18.60;;;;;;;-2.04;69.04;101451.68;105091;1254;60472;-67
2023/01/26 06:03:22;;;;;;;31.00;18.50;;;;;;;-2.04;69.05;101450.99;105715;1255;66477;-66
2023/01/26 06:05:52;;;;;;;29.30;18.20;;;;;;;-2.03;68.96;101443.91;105590;1257;60418;-65
2023/01/26 06:08:32;;;;;;;32.30;18.90;;;;;;;-2.02;69.03;101441.67;105352;1261;65698;-70
2023/01/26 06:11:20;;;;;;;32.60;19.20;;;;;;;-2.00;69.05;101441.66;105444;1259;60974;-66
2023/01/26 06:14:21;;;;;;;26.30;17.60;;;;;;;-1.99;68.93;101439.05;105485;1259;60517;-65
2023/01/26 06:16:51;;;;;;;26.70;16.90;;;;;;;-1.99;68.88;101436.64;105718;1257;66438;-65
2023/01/26 06:19:22;;;;;;;28.10;17.10;;;;;;;-1.98;68.93;101440.06;105491;1258;60421;-68
2023/01/26 06:21:54;;;;;;;30.00;17.30;;;;;;;-1.96;68.86;101434.86;105654;1260;64509;-64
2023/01/26 06:24:23;;;;;;;32.40;17.60;;;;;;;-1.95;68.75;101433.47;105921;1267;60438;-64
2023/01/26 06:26:53;;;;;;;32.00;17.70;;;;;;;-1.95;68.66;101429.33;105598;1258;60364;-65
2023/01/26 06:29:22;;;;;;;30.00;17.90;;;;;;;-1.95;68.61;101432.77;105569;1260;66765;-66
2023/01/26 06:31:50;;;;;;;31.10;16.70;;;;;;;-1.95;68.56;101433.80;105741;1260;60613;-68
2023/01/26 06:34:20;;;;;;;32.10;17.90;;;;;;;-1.93;68.60;101433.98;105238;1260;64927;-66
2023/01/26 06:36:49;;;;;;;28.50;16.80;;;;;;;-1.94;68.52;101437.77;105818;1255;60438;-68
2023/01/26 06:39:24;;;;;;;31.40;18.40;;;;;;;-1.96;68.47;101434.69;105597;1255;61172;-66
2023/01/26 06:41:53;;;;;;;32.00;18.20;;;;;;;-1.96;68.50;101431.07;105473;1254;64944;-66
2023/01/26 06:44:23;;;;;;;30.30;17.00;;;;;;;-1.94;68.54;101434.50;105955;1258;60404;-67
2023/01/26 06:46:51;;;;;;;27.30;16.20;;;;;;;-1.92;68.54;101429.66;105329;1254;65592;-66
2023/01/26 06:49:20;;;;;;;31.20;17.60;;;;;;;-1.90;68.51;101435.33;105511;1259;60437;-67
2023/01/26 06:51:56;;;;;;;30.90;17.20;;;;;;;-1.87;68.51;101432.17;105765;1254;60341;-65
2023/01/26 06:54:42;;;;;;;31.30;18.10;;;;;;;-1.82;68.46;101438.00;105620;1257;66778;-65
2023/01/26 06:57:22;;;;;;;43.50;21.30;;;;;;;-1.79;68.34;101436.40;105636;1254;60542;-66
2023/01/26 07:00:09;;;;;;;55.60;22.70;;;;;;;-1.78;68.28;101432.77;105632;1259;63783;-64
2023/01/26 07:02:55;;;;;;;48.50;22.30;;;;;;;-1.78;68.21;101436.39;105420;1263;60450;-66
2023/01/26 07:05:23;;;;;;;40.10;20.40;;;;;;;-1.77;68.16;101433.09;105547;1254;60445;-68
2023/01/26 07:07:52;;;;;;;38.10;17.80;;;;;;;-1.75;68.12;101430.64;105761;1254;65636;-66
2023/01/26 07:10:21;;;;;;;45.50;20.20;;;;;;;-1.75;67.93;101432.38;105557;1260;60566;-65
2023/01/26 07:12:50;;;;;;;52.50;23.50;;;;;;;-1.75;67.88;101433.05;105598;1260;65569;-67
2023/01/26 07:15:18;;;;;;;79.60;31.60;;;;;;;-1.74;67.82;101438.25;105627;1259;60555;-65
2023/01/26 07:17:46;;;;;;;123.50;43.70;;;;;;;-1.72;67.84;101441.17;105823;1254;60878;-67
2023/01/26 07:20:15;;;;;;;130.40;47.50;;;;;;;-1.71;67.98;101441.32;105585;1255;65550;-66
2023/01/26 07:22:43;;;;;;;149.80;51.00;;;;;;;-1.68;68.08;101442.30;105514;1258;60430;-67
2023/01/26 07:25:13;;;;;;;151.90;52.70;;;;;;;-1.64;68.15;101441.23;105239;1255;65717;-69
2023/01/26 07:27:42;;;;;;;162.40;52.20;;;;;;;-1.61;68.21;101445.17;105678;1259;60458;-66
2023/01/26 07:30:14;;;;;;;152.30;53.40;;;;;;;-1.59;68.21;101447.39;105800;1258;60380;-67
2023/01/26 07:32:42;;;;;;;177.30;55.00;;;;;;;-1.56;68.16;101445.80;105455;1260;65225;-66
2023/01/26 07:35:11;;;;;;;193.50;62.30;;;;;;;-1.53;68.15;101443.17;105635;1253;60440;-64
2023/01/26 07:37:39;;;;;;;187.50;60.90;;;;;;;-1.51;68.11;101438.48;105508;1254;65620;-66
2023/01/26 07:40:08;;;;;;;208.30;62.80;;;;;;;-1.52;68.06;101435.90;105513;1261;60521;-65
2023/01/26 07:42:37;;;;;;;214.60;65.90;;;;;;;-1.53;68.03;101432.12;105375;1253;60475;-66
2023/01/26 07:52:55;;;;;;;192.70;64.10;;;;;;;-1.55;68.34;101436.09;102779;1297;600694;-65
2023/01/26 07:55:26;;;;;;;188.80;60.90;;;;;;;-1.55;68.34;101438.17;104676;1266;59389;-66
2023/01/26 07:57:56;;;;;;;192.70;62.70;;;;;;;-1.55;68.43;101435.41;104874;1270;59353;-64
2023/01/26 08:00:29;;;;;;;183.00;59.90;;;;;;;-1.54;68.45;101437.48;104628;1266;64895;-66
2023/01/26 08:02:58;;;;;;;187.90;60.10;;;;;;;-1.53;68.59;101440.23;105277;1271;59963;-68
2023/01/26 08:05:27;;;;;;;166.70;54.60;;;;;;;-1.49;68.69;101437.59;104465;1271;248342;-69
2023/01/26 08:07:57;;;;;;;187.20;61.50;;;;;;;-1.46;68.55;101435.47;104910;1265;59268;-66
2023/01/26 08:10:30;;;;;;;184.20;57.90;;;;;;;-1.44;68.53;101435.30;105279;1267;59356;-67
2023/01/26 08:12:59;;;;;;;161.50;54.30;;;;;;;-1.42;68.60;101435.60;105747;1253;65161;-65
2023/01/26 08:15:27;;;;;;;175.80;57.50;;;;;;;-1.41;68.60;101438.70;105484;1259;60114;-66
2023/01/26 08:17:56;;;;;;;162.40;53.60;;;;;;;-1.41;68.52;101439.04;106000;1254;65505;-69
2023/01/26 08:20:25;;;;;;;149.20;52.10;;;;;;;-1.41;68.57;101447.34;105522;1257;59517;-70
2023/01/26 08:22:54;;;;;;;148.50;51.70;;;;;;;-1.39;68.62;101446.27;106684;1254;59667;-64
2023/01/26 08:25:22;;;;;;;160.80;53.40;;;;;;;-1.36;68.69;101446.39;105579;1255;65584;-67
2023/01/26 08:27:53;;;;;;;146.30;48.90;;;;;;;-1.34;68.69;101446.04;105493;1254;60064;-65
2023/01/26 08:30:23;;;;;;;138.90;48.50;;;;;;;-1.32;68.72;101443.42;105289;1254;65608;-65
2023/01/26 08:32:52;;;;;;;135.90;48.00;;;;;;;-1.31;68.69;101443.39;105411;1254;59680;-66
2023/01/26 08:35:21;;;;;;;137.70;48.50;;;;;;;-1.31;68.73;101439.77;105471;1254;59645;-65
2023/01/26 08:37:54;;;;;;;126.80;46.70;;;;;;;-1.28;68.75;101442.31;105681;1254;64885;-66
2023/01/26 08:40:53;;;;;;;129.50;46.30;;;;;;;-1.25;68.71;101436.23;105902;1260;61446;-69
2023/01/26 08:43:22;;;;;;;126.80;46.10;;;;;;;-1.25;68.68;101432.44;105515;1259;65673;-66
2023/01/26 08:45:51;;;;;;;132.40;50.30;;;;;;;-1.24;68.67;101437.09;105515;1258;59753;-66
2023/01/26 08:48:23;;;;;;;124.70;47.40;;;;;;;-1.24;68.65;101430.52;105460;1258;59553;-65
2023/01/26 08:50:57;;;;;;;135.70;51.80;;;;;;;-1.23;68.69;101432.58;105462;1258;66024;-70
2023/01/26 08:53:28;;;;;;;120.40;47.50;;;;;;;-1.19;68.77;101429.92;105441;1254;59659;-67
2023/01/26 08:56:01;;;;;;;127.70;50.80;;;;;;;-1.17;68.65;101423.48;105645;1257;63666;-66
2023/01/26 08:58:30;;;;;;;141.50;52.00;;;;;;;-1.19;68.53;101423.52;105422;1254;59848;-68
2023/01/26 09:01:19;;;;;;;120.10;47.90;;;;;;;-1.20;68.59;101415.42;106242;1253;59518;-67
2023/01/26 09:04:08;;;;;;;118.10;43.60;;;;;;;-1.13;68.76;101412.39;105315;1257;65867;-66
2023/01/26 09:06:36;;;;;;;116.60;43.20;;;;;;;-1.06;68.66;101411.77;105652;1255;59707;-65
2023/01/26 09:09:08;;;;;;;119.40;40.50;;;;;;;-1.04;68.40;101411.91;105646;1254;65611;-67
2023/01/26 09:11:38;;;;;;;124.70;42.50;;;;;;;-1.04;68.33;101411.39;105314;1254;59716;-69
2023/01/26 09:14:06;;;;;;;111.40;43.10;;;;;;;-0.98;68.47;101408.00;105494;1254;59705;-68
2023/01/26 09:16:35;;;;;;;120.60;44.60;;;;;;;-0.91;68.36;101405.30;105517;1256;64405;-66
2023/01/26 09:19:04;;;;;;;100.90;39.50;;;;;;;-0.89;68.16;101405.09;105704;1254;59769;-67
2023/01/26 09:21:32;;;;;;;109.30;41.50;;;;;;;-0.86;68.08;101396.41;105398;1254;65520;-71
2023/01/26 09:24:01;;;;;;;122.50;43.10;;;;;;;-0.83;68.01;101393.77;105713;1253;59582;-69
2023/01/26 09:26:30;;;;;;;99.00;38.00;;;;;;;-0.78;67.93;101388.67;105449;1254;59667;-68
2023/01/26 09:28:59;;;;;;;94.40;37.20;;;;;;;-0.72;67.99;101389.09;105440;1255;65925;-68
2023/01/26 09:31:27;;;;;;;101.50;37.00;;;;;;;-0.66;67.85;101389.16;105361;1259;60073;-67
2023/01/26 09:33:56;;;;;;;99.90;35.60;;;;;;;-0.58;67.74;101390.41;105354;1256;64611;-70
2023/01/26 09:36:25;;;;;;;101.10;39.40;;;;;;;-0.54;67.33;101388.10;105351;1254;59542;-71
2023/01/26 09:38:53;;;;;;;96.40;39.90;;;;;;;-0.56;67.02;101382.77;105559;1254;59685;-71
2023/01/26 09:41:22;;;;;;;107.40;38.60;;;;;;;-0.54;66.95;101374.44;105353;1261;65553;-67
2023/01/26 09:43:56;;;;;;;97.30;35.70;;;;;;;-0.50;66.99;101378.84;105515;1254;60048;-66
2023/01/26 09:46:27;;;;;;;98.00;36.80;;;;;;;-0.45;66.86;101376.69;105246;1256;65502;-68
2023/01/26 09:49:10;;;;;;;90.40;36.40;;;;;;;-0.43;66.77;101372.48;105172;1260;59690;-67
2023/01/26 09:51:57;;;;;;;88.40;37.60;;;;;;;-0.39;66.65;101376.40;105672;1254;59832;-69
2023/01/26 09:54:44;;;;;;;87.40;34.40;;;;;;;-0.38;66.42;101376.38;105591;1256;65852;-71
2023/01/26 09:57:16;;;;;;;83.50;34.30;;;;;;;-0.37;66.39;101373.42;106116;1254;59892;-70
2023/01/26 09:59:49;;;;;;;97.50;38.40;;;;;;;-0.33;66.29;101371.25;105813;1258;65522;-67
2023/01/26 10:02:32;;;;;;;102.70;39.70;;;;;;;-0.28;66.17;101367.55;106450;1254;59702;-67
2023/01/26 10:05:04;;;;;;;94.80;37.10;;;;;;;-0.24;66.05;101364.88;105331;1256;59760;-68
2023/01/26 10:07:33;;;;;;;86.90;37.10;;;;;;;-0.19;65.93;101355.27;105511;1254;64673;-68
2023/01/26 10:10:02;;;;;;;94.50;36.30;;;;;;;-0.10;65.85;101356.97;105467;1258;60061;-68
2023/01/26 10:12:34;;;;;;;92.90;34.80;;;;;;;0.08;66.13;101352.98;105267;1254;65311;-67
2023/01/26 10:15:09;;;;;;;86.70;35.40;;;;;;;0.29;65.92;101352.04;105473;1254;59656;-67
2023/01/26 10:17:40;;;;;;;72.40;30.60;;;;;;;0.50;65.83;101346.19;105332;1256;59634;-66
2023/01/26 10:20:33;;;;;;;85.20;34.30;;;;;;;0.71;65.52;101335.65;105373;1254;65944;-69
2023/01/26 10:23:10;;;;;;;99.00;35.80;;;;;;;0.95;65.14;101332.33;105204;1254;60311;-67
2023/01/26 10:25:40;;;;;;;100.80;37.60;;;;;;;1.12;64.52;101331.02;105258;1254;65753;-68
2023/01/26 10:28:11;;;;;;;98.10;37.20;;;;;;;1.24;63.98;101323.63;105343;1258;59712;-69
2023/01/26 10:30:40;;;;;;;98.50;39.20;;;;;;;1.31;63.36;101322.23;105430;1254;59689;-69
2023/01/26 10:33:24;;;;;;;98.80;37.40;;;;;;;1.32;62.67;101323.23;105157;1256;64890;-75
2023/01/26 10:35:53;;;;;;;105.70;37.60;;;;;;;1.27;62.04;101323.70;105281;1254;59648;-71
2023/01/26 10:38:38;;;;;;;106.00;37.50;;;;;;;1.17;61.52;101316.48;105160;1256;65602;-67
2023/01/26 10:41:18;;;;;;;91.50;37.00;;;;;;;1.07;61.46;101317.62;105456;1256;61733;-70
2023/01/26 10:43:56;;;;;;;101.00;37.90;;;;;;;1.09;61.74;101314.98;105398;1260;59533;-70
2023/01/26 10:46:39;;;;;;;101.10;36.80;;;;;;;1.15;61.64;101314.81;105364;1256;65020;-70
2023/01/26 10:49:08;;;;;;;;;;;;;;;1.13;61.17;101310.88;105438;1254;60025;-70
2023/01/26 10:51:40;;;;;;;110.80;40.70;;;;;;;1.08;61.03;101310.84;105782;1254;65971;-69
2023/01/26 10:54:13;;;;;;;109.20;40.90;;;;;;;1.06;60.84;101311.23;105053;1254;59688;-71
2023/01/26 10:56:45;;;;;;;115.20;42.50;;;;;;;1.03;60.70;101307.14;105785;1258;59707;-74
2023/01/26 10:59:31;;;;;;;118.90;41.80;;;;;;;1.05;60.85;101309.52;105629;1253;64058;-72
2023/01/26 11:02:09;;;;;;;103.90;40.10;;;;;;;0.98;60.49;101306.23;105430;1254;60013;-74
2023/01/26 11:04:38;;;;;;;111.40;41.50;;;;;;;0.82;60.39;101298.81;105457;1255;65470;-71
2023/01/26 11:07:24;;;;;;;131.10;46.50;;;;;;;0.75;60.43;101305.58;105517;1257;59717;-73
2023/01/26 11:09:53;;;;;;;157.20;50.60;;;;;;;0.74;60.55;101304.21;105387;1258;59632;-72
2023/01/26 11:12:23;;;;;;;149.00;49.80;;;;;;;0.74;60.70;101298.30;106103;1258;65410;-75
2023/01/26 11:15:04;;;;;;;134.10;46.90;;;;;;;0.77;60.91;101293.73;106290;1259;60102;-70
2023/01/26 11:17:50;;;;;;;111.10;42.90;;;;;;;0.83;60.82;101293.76;105491;1256;64583;-72
2023/01/26 11:20:47;;;;;;;105.30;39.10;;;;;;;0.84;60.68;101290.08;105506;1254;59761;-72
2023/01/26 11:23:56;;;;;;;99.60;38.60;;;;;;;0.87;60.75;101286.38;105807;1256;59251;-73
2023/01/26 11:26:28;;;;;;;100.10;38.80;;;;;;;0.89;60.60;101281.48;106062;1256;64876;-69
2023/01/26 11:29:22;;;;;;;100.90;39.10;;;;;;;0.90;60.64;101281.30;105445;1254;59753;-71
2023/01/26 11:32:11;;;;;;;49.70;23.10;;;;;;;0.94;60.85;101281.52;105411;1259;65761;-71
2023/01/26 11:35:04;;;;;;;54.20;27.20;;;;;;;0.97;60.80;101282.83;105606;1255;59763;-69
2023/01/26 11:37:46;;;;;;;50.90;26.20;;;;;;;0.91;60.74;101279.17;106027;1254;59678;-70
2023/01/26 11:40:36;;;;;;;54.30;26.90;;;;;;;0.83;60.80;101276.77;105486;1254;64593;-74
2023/01/26 11:43:37;;;;;;;72.70;31.90;;;;;;;0.79;61.03;101277.73;105592;1258;59796;-70
2023/01/26 11:46:34;;;;;;;54.90;28.00;;;;;;;0.79;61.10;101273.23;105901;1254;65554;-71
2023/01/26 11:49:38;;;;;;;47.80;25.50;;;;;;;0.83;61.11;101270.17;105544;1254;59694;-71
2023/01/26 11:52:27;;;;;;;46.40;26.00;;;;;;;0.78;61.05;101272.39;105270;1254;59728;-72
2023/01/26 11:55:13;;;;;;;52.60;25.80;;;;;;;0.71;61.15;101273.61;105818;1257;65563;-72
2023/01/26 11:57:48;;;;;;;48.70;25.90;;;;;;;0.68;61.31;101275.24;105895;1255;69324;-71
2023/01/26 12:00:24;;;;;;;47.80;24.60;;;;;;;0.65;61.41;101277.55;105878;1254;65922;-70
2023/01/26 12:03:05;;;;;;;47.90;26.40;;;;;;;0.65;61.54;101276.88;105876;1256;59613;-72
2023/01/26 12:05:43;;;;;;;49.10;26.20;;;;;;;0.62;61.55;101271.59;105385;1254;60883;-71
2023/01/26 12:08:17;;;;;;;43.50;25.30;;;;;;;0.56;61.71;101269.45;105824;1255;64372;-71
2023/01/26 12:11:20;;;;;;;;;;;;;;;0.53;61.95;101267.27;105436;1254;59639;-71
2023/01/26 14:10:44;;;;;;;31.20;21.90;;;;;;;-0.03;65.46;101218.96;103348;1287;604212;-66
2023/01/26 14:13:20;;;;;;;28.70;20.50;;;;;;;0.35;64.22;101219.89;104628;1272;145471;-71
2023/01/26 14:15:55;;;;;;;35.60;21.70;;;;;;;0.25;64.18;101225.85;105791;1263;59238;-69
2023/01/26 14:18:23;;;;;;;33.40;21.70;;;;;;;0.16;64.22;101227.09;105317;1263;64318;-71
2023/01/26 14:21:03;;;;;;;34.70;22.40;;;;;;;0.08;64.18;101224.31;105514;1262;59627;-68
2023/01/26 14:23:34;;;;;;;30.20;20.30;;;;;;;-0.01;64.13;101226.96;105119;1266;64654;-71
2023/01/26 14:26:05;;;;;;;32.70;21.80;;;;;;;-0.12;64.19;101223.21;105149;1264;59333;-71
2023/01/26 14:28:39;;;;;;;35.60;21.60;;;;;;;-0.21;64.37;101215.95;105405;1266;59298;-70
2023/01/26 14:31:17;;;;;;;34.40;22.00;;;;;;;-0.29;64.38;101213.88;105098;1266;64195;-71